Time;durP1;ratioP1;P1;durP2;ratioP2;P2;SDS_P1;SDS_P2;PMS_P1;PMS_P2;Temp;Humidity;BMP_temperature;BMP_pressure;BME280_temperature;BME280_humidity;BME280_pressure;Samples;Min_cycle;Max_cycle;Signal;HPM_P1;HPM_P2
2021/07/09 00:01:36;;;;;;;7.13;6.57;;;18.40;99.90;;;;;;5055612;28;20435;-78
2021/07/09 00:27:39;;;;;;;7.03;6.23;;;18.60;99.90;;;;;;5054886;28;20386;-78
2021/07/09 00:30:06;;;;;;;7.63;6.83;;;18.50;99.90;;;;;;5055276;28;20470;-77
2021/07/09 00:32:33;;;;;;;7.07;6.23;;;18.50;99.90;;;;;;5054893;28;20482;-77
2021/07/09 00:34:59;;;;;;;7.00;5.77;;;18.40;99.90;;;;;;5054926;28;20978;-78
2021/07/09 00:37:26;;;;;;;12.33;7.30;;;18.30;99.90;;;;;;5055751;28;20528;-78
2021/07/09 00:39:52;;;;;;;6.43;5.83;;;18.30;99.90;;;;;;5057777;28;20468;-77
2021/07/09 00:42:19;;;;;;;9.10;6.07;;;18.30;99.90;;;;;;5059623;28;20477;-77
2021/07/09 00:44:47;;;;;;;5.93;5.43;;;18.30;99.90;;;;;;5060290;28;20860;-77
2021/07/09 00:47:13;;;;;;;6.40;5.90;;;18.40;99.90;;;;;;5060064;28;20483;-77
2021/07/09 00:49:40;;;;;;;6.93;6.20;;;18.30;99.90;;;;;;5063934;28;20471;-76
2021/07/09 00:52:07;;;;;;;7.60;6.70;;;18.30;99.90;;;;;;5063420;28;20972;-77
2021/07/09 00:54:34;;;;;;;8.90;7.23;;;18.30;99.90;;;;;;5064361;28;20495;-77
2021/07/09 00:57:01;;;;;;;6.00;5.47;;;18.30;99.90;;;;;;5063340;28;20867;-77
2021/07/09 00:59:27;;;;;;;6.07;5.47;;;18.30;99.90;;;;;;5063370;28;20442;-77
2021/07/09 01:01:59;;;;;;;6.63;5.93;;;18.20;99.90;;;;;;5062603;28;20470;-77
2021/07/09 01:04:25;;;;;;;9.57;6.30;;;18.30;99.90;;;;;;5062540;28;20592;-77
2021/07/09 01:06:52;;;;;;;6.40;5.17;;;18.20;99.90;;;;;;5058708;28;20500;-77
2021/07/09 01:09:19;;;;;;;6.20;5.33;;;18.20;99.90;;;;;;5058809;28;20459;-77
2021/07/09 01:11:48;;;;;;;6.40;5.90;;;18.20;99.90;;;;;;5056290;28;20444;-77
2021/07/09 01:14:15;;;;;;;6.63;5.67;;;18.30;99.90;;;;;;5054323;28;20507;-78
2021/07/09 01:16:41;;;;;;;5.97;5.53;;;18.50;99.90;;;;;;5054324;28;20537;-77
2021/07/09 01:19:14;;;;;;;5.93;5.53;;;18.30;99.90;;;;;;5054865;28;20474;-77
2021/07/09 01:21:41;;;;;;;6.20;5.70;;;18.20;99.90;;;;;;5054451;28;20956;-77
2021/07/09 01:24:10;;;;;;;5.73;5.20;;;18.40;99.90;;;;;;5055607;28;20521;-77
2021/07/09 01:26:37;;;;;;;6.53;6.03;;;18.30;99.90;;;;;;5056934;28;20496;-77
2021/07/09 01:29:05;;;;;;;14.73;6.60;;;18.30;99.90;;;;;;5054868;28;20451;-77
2021/07/09 01:31:32;;;;;;;6.90;6.20;;;18.20;99.90;;;;;;5053560;28;20545;-77
2021/07/09 01:33:59;;;;;;;6.30;5.70;;;18.30;99.90;;;;;;5052815;28;20928;-77
2021/07/09 01:36:25;;;;;;;5.50;5.10;;;18.30;99.90;;;;;;5055640;28;20569;-76
2021/07/09 01:38:52;;;;;;;7.37;6.10;;;18.30;99.90;;;;;;5059978;28;20448;-76
2021/07/09 01:41:21;;;;;;;6.27;5.67;;;18.30;99.90;;;;;;5062267;28;20967;-76
2021/07/09 01:43:48;;;;;;;8.57;6.00;;;18.30;99.90;;;;;;5059371;28;20532;-76
2021/07/09 01:46:15;;;;;;;6.67;5.50;;;18.30;99.90;;;;;;5059868;28;20439;-76
2021/07/09 01:48:41;;;;;;;6.53;5.97;;;18.20;99.90;;;;;;5061884;28;20458;-75
2021/07/09 01:51:08;;;;;;;8.43;6.30;;;18.30;99.90;;;;;;5058129;28;20447;-77
2021/07/09 01:53:35;;;;;;;6.80;6.20;;;18.20;99.90;;;;;;5054546;28;20493;-77
2021/07/09 01:56:02;;;;;;;6.47;5.93;;;18.20;99.90;;;;;;5053393;28;20523;-77
2021/07/09 01:58:30;;;;;;;7.13;6.50;;;18.20;99.90;;;;;;5053102;28;20852;-77
2021/07/09 02:00:56;;;;;;;8.87;6.20;;;18.20;99.90;;;;;;5052890;28;20476;-77
2021/07/09 02:03:23;;;;;;;6.40;6.00;;;18.20;99.90;;;;;;5053092;28;20868;-77
2021/07/09 02:05:50;;;;;;;6.60;6.10;;;18.10;99.90;;;;;;5052806;28;20510;-77
2021/07/09 02:08:16;;;;;;;7.57;6.97;;;18.20;99.90;;;;;;5052965;28;20486;-77
2021/07/09 02:10:44;;;;;;;6.50;5.43;;;18.20;99.90;;;;;;5052901;28;20538;-76
2021/07/09 02:13:11;;;;;;;8.80;6.10;;;18.10;99.90;;;;;;5053164;28;20553;-76
2021/07/09 02:15:41;;;;;;;6.53;6.03;;;18.30;99.90;;;;;;5052537;28;20576;-76
2021/07/09 02:18:08;;;;;;;5.90;5.40;;;18.30;99.90;;;;;;5052811;28;20444;-76
2021/07/09 02:20:36;;;;;;;11.53;5.80;;;18.30;99.90;;;;;;5052863;28;20473;-76
2021/07/09 02:23:05;;;;;;;8.73;5.33;;;18.40;99.90;;;;;;5053429;28;20888;-77
2021/07/09 02:25:32;;;;;;;6.13;5.27;;;18.40;99.90;;;;;;5053304;28;20545;-76
2021/07/09 02:27:59;;;;;;;6.20;5.70;;;18.50;99.90;;;;;;5052788;28;20477;-76
2021/07/09 02:30:27;;;;;;;7.97;5.90;;;18.40;99.90;;;;;;5052605;28;20508;-76
2021/07/09 02:32:55;;;;;;;10.77;5.20;;;18.40;99.90;;;;;;5052613;28;20559;-76
2021/07/09 02:35:29;;;;;;;6.17;5.67;;;18.30;99.90;;;;;;5052553;28;20520;-77
2021/07/09 02:37:56;;;;;;;5.73;5.33;;;18.30;99.90;;;;;;5052594;28;20464;-76
2021/07/09 02:40:24;;;;;;;6.30;5.73;;;18.30;99.90;;;;;;5052527;28;20496;-76
2021/07/09 02:42:53;;;;;;;6.10;5.60;;;18.20;99.90;;;;;;5052420;28;20533;-76
2021/07/09 02:45:21;;;;;;;10.63;5.50;;;18.20;99.90;;;;;;5052627;28;20568;-76
2021/07/09 02:47:49;;;;;;;7.13;6.30;;;18.20;99.90;;;;;;5056391;28;20902;-76
2021/07/09 02:50:19;;;;;;;7.17;6.30;;;18.10;99.90;;;;;;5056174;28;20489;-76
2021/07/09 02:52:46;;;;;;;6.83;6.13;;;18.20;99.90;;;;;;5055966;28;20458;-76
2021/07/09 02:55:13;;;;;;;7.10;6.50;;;18.20;99.90;;;;;;5055953;28;20504;-76
2021/07/09 02:57:41;;;;;;;8.00;7.30;;;18.20;99.90;;;;;;5056283;28;20477;-76
2021/07/09 03:00:11;;;;;;;14.93;13.23;;;18.20;99.90;;;;;;5056135;28;20483;-76
2021/07/09 03:02:38;;;;;;;9.53;6.27;;;18.40;99.90;;;;;;5055855;28;20474;-76
2021/07/09 03:05:06;;;;;;;7.90;7.10;;;18.30;99.90;;;;;;5055915;28;20505;-76
2021/07/09 03:07:34;;;;;;;6.50;6.00;;;18.50;99.90;;;;;;5055936;28;20846;-76
2021/07/09 03:10:00;;;;;;;8.90;7.33;;;18.40;99.90;;;;;;5055531;28;21058;-76
2021/07/09 03:12:28;;;;;;;6.67;6.03;;;18.50;99.90;;;;;;5055639;28;20984;-76
2021/07/09 03:14:55;;;;;;;6.53;5.83;;;18.30;99.90;;;;;;5055754;28;20564;-76
2021/07/09 03:17:21;;;;;;;7.13;6.50;;;18.30;99.90;;;;;;5055593;28;20514;-76
2021/07/09 03:19:48;;;;;;;8.00;6.30;;;18.30;99.90;;;;;;5055756;28;20451;-76
2021/07/09 03:22:14;;;;;;;6.70;6.10;;;18.40;99.90;;;;;;5055858;28;20854;-76
2021/07/09 03:24:42;;;;;;;7.20;6.70;;;18.20;99.90;;;;;;5055587;28;20494;-77
2021/07/09 03:27:09;;;;;;;8.37;6.80;;;18.20;99.90;;;;;;5055778;28;20567;-77
2021/07/09 03:29:36;;;;;;;6.57;5.97;;;18.20;99.90;;;;;;5055708;28;20474;-77
2021/07/09 03:32:02;;;;;;;5.97;5.57;;;18.20;99.90;;;;;;5055595;28;20485;-77
2021/07/09 03:34:29;;;;;;;8.70;6.80;;;18.20;99.90;;;;;;5055402;28;20578;-77
2021/07/09 03:36:56;;;;;;;8.30;7.30;;;18.30;99.90;;;;;;5055757;28;20510;-77
2021/07/09 03:39:22;;;;;;;6.60;6.00;;;18.30;99.90;;;;;;5056300;28;20446;-77
2021/07/09 03:41:50;;;;;;;9.10;7.20;;;18.20;99.90;;;;;;5056057;28;20530;-77
2021/07/09 03:44:17;;;;;;;6.93;6.10;;;18.10;99.90;;;;;;5056075;28;20578;-77
2021/07/09 03:46:43;;;;;;;8.10;6.30;;;18.20;99.90;;;;;;5057316;28;20481;-77
2021/07/09 03:49:10;;;;;;;8.50;5.77;;;18.10;99.90;;;;;;5056116;28;20480;-77
2021/07/09 03:51:37;;;;;;;9.00;7.00;;;18.10;99.90;;;;;;5055135;28;20534;-77
2021/07/09 03:54:03;;;;;;;6.67;6.23;;;18.10;99.90;;;;;;5055135;28;20470;-77
2021/07/09 03:56:31;;;;;;;10.80;7.43;;;18.10;99.90;;;;;;5054909;28;20481;-77
2021/07/09 03:59:00;;;;;;;7.97;7.07;;;18.00;99.90;;;;;;5053887;28;20549;-77
2021/07/09 04:01:26;;;;;;;11.03;8.30;;;18.00;99.90;;;;;;5054977;28;20454;-77
2021/07/09 04:03:53;;;;;;;9.03;8.33;;;18.00;99.90;;;;;;5054825;28;20896;-77
2021/07/09 04:06:20;;;;;;;8.00;7.30;;;17.30;99.90;;;;;;5055648;28;20518;-77
2021/07/09 04:08:46;;;;;;;9.53;8.63;;;17.80;99.90;;;;;;5055146;28;20537;-77
2021/07/09 04:11:13;;;;;;;9.77;8.77;;;17.80;99.90;;;;;;5055298;28;20489;-76
2021/07/09 04:13:39;;;;;;;9.90;8.97;;;17.20;99.90;;;;;;5055193;28;20887;-77
2021/07/09 04:16:07;;;;;;;12.53;9.07;;;17.80;99.90;;;;;;5055463;28;20515;-76
2021/07/09 04:18:34;;;;;;;9.23;8.43;;;17.70;99.90;;;;;;5054661;28;20453;-77
2021/07/09 04:21:01;;;;;;;10.27;9.23;;;17.60;99.90;;;;;;5055149;28;20545;-77
2021/07/09 04:23:28;;;;;;;11.07;9.63;;;17.60;99.90;;;;;;5054852;28;20538;-77
2021/07/09 04:25:54;;;;;;;11.73;10.23;;;17.60;99.90;;;;;;5054611;28;20540;-77
2021/07/09 04:28:21;;;;;;;14.70;11.50;;;17.60;99.90;;;;;;5054652;28;20484;-77
2021/07/09 04:30:49;;;;;;;10.97;9.83;;;17.60;99.90;;;;;;5054762;28;20481;-78
2021/07/09 04:33:17;;;;;;;13.40;11.27;;;17.60;99.90;;;;;;5055607;28;20545;-79
2021/07/09 04:35:44;;;;;;;12.53;11.10;;;17.60;99.90;;;;;;5055191;28;20504;-78
2021/07/09 04:38:10;;;;;;;15.23;11.93;;;17.60;99.90;;;;;;5054470;28;20500;-77
2021/07/09 04:40:37;;;;;;;18.23;11.90;;;17.50;99.90;;;;;;5054642;28;20481;-77
2021/07/09 04:43:04;;;;;;;14.90;12.30;;;17.40;99.90;;;;;;5054459;28;20469;-77
2021/07/09 04:45:30;;;;;;;17.13;12.60;;;17.50;99.90;;;;;;5054251;28;20863;-77
2021/07/09 04:47:57;;;;;;;16.53;12.80;;;17.40;99.90;;;;;;5054753;28;20438;-77
2021/07/09 04:50:25;;;;;;;17.53;13.37;;;17.40;99.90;;;;;;5054390;28;20465;-75
2021/07/09 04:52:51;;;;;;;18.50;14.97;;;17.40;99.90;;;;;;5053666;28;20528;-76
2021/07/09 04:55:18;;;;;;;21.23;13.57;;;17.40;99.90;;;;;;5053673;28;20568;-76
2021/07/09 04:57:45;;;;;;;16.37;14.50;;;17.30;99.90;;;;;;5053626;28;20481;-76
2021/07/09 05:00:12;;;;;;;19.40;14.13;;;17.40;99.90;;;;;;5053581;28;20540;-77
2021/07/09 05:02:39;;;;;;;19.13;15.20;;;17.40;99.90;;;;;;5053719;28;20507;-76
2021/07/09 05:05:07;;;;;;;17.53;15.63;;;17.40;99.90;;;;;;5053774;28;20548;-77
2021/07/09 05:07:36;;;;;;;23.77;17.27;;;17.40;99.90;;;;;;5053282;28;20473;-76
2021/07/09 05:10:03;;;;;;;23.00;15.60;;;17.30;99.90;;;;;;5053233;28;20480;-76
2021/07/09 05:12:30;;;;;;;21.70;17.13;;;17.40;99.90;;;;;;5053259;28;20599;-76
2021/07/09 05:14:56;;;;;;;19.27;16.20;;;17.40;99.90;;;;;;5053195;28;20504;-76
2021/07/09 05:17:23;;;;;;;17.83;15.93;;;17.40;99.90;;;;;;5053098;28;20505;-76
2021/07/09 05:19:52;;;;;;;20.00;16.97;;;17.40;99.90;;;;;;5053480;28;20449;-77
2021/07/09 05:22:19;;;;;;;24.27;15.33;;;17.40;99.90;;;;;;5053250;28;20839;-76
2021/07/09 05:24:47;;;;;;;24.13;15.93;;;17.40;99.90;;;;;;5053361;28;20901;-76
2021/07/09 05:27:15;;;;;;;19.20;16.83;;;17.40;99.90;;;;;;5053312;28;20532;-76
2021/07/09 05:29:41;;;;;;;18.47;15.40;;;17.40;99.90;;;;;;5053040;28;20495;-76
2021/07/09 05:32:09;;;;;;;19.10;16.23;;;17.40;99.90;;;;;;5053106;28;20449;-76
2021/07/09 05:34:36;;;;;;;17.50;14.43;;;17.40;99.90;;;;;;5052915;28;20500;-76
2021/07/09 05:37:03;;;;;;;18.20;15.23;;;17.50;99.90;;;;;;5052826;28;20481;-76
2021/07/09 05:39:30;;;;;;;16.27;14.47;;;17.40;99.90;;;;;;5053045;28;20488;-76
2021/07/09 05:42:00;;;;;;;17.37;15.50;;;17.40;99.90;;;;;;5053238;28;20971;-76
2021/07/09 05:44:27;;;;;;;18.00;15.03;;;17.40;99.90;;;;;;5052622;28;20481;-76
2021/07/09 05:46:53;;;;;;;17.50;14.90;;;17.40;99.90;;;;;;5053013;28;20525;-76
2021/07/09 05:49:20;;;;;;;21.87;15.57;;;17.40;99.90;;;;;;5053431;28;20465;-75
2021/07/09 05:51:47;;;;;;;17.20;15.10;;;17.40;99.90;;;;;;5053043;28;20464;-76
2021/07/09 05:54:14;;;;;;;17.70;15.30;;;17.50;99.90;;;;;;5052714;28;20501;-76
2021/07/09 05:56:40;;;;;;;21.57;16.80;;;17.50;99.90;;;;;;5052870;28;20572;-76
2021/07/09 05:59:08;;;;;;;16.53;14.57;;;17.60;99.90;;;;;;5054038;28;20500;-76
2021/07/09 06:01:35;;;;;;;18.93;16.60;;;17.60;99.90;;;;;;5053256;28;20480;-76
2021/07/09 06:04:01;;;;;;;19.73;15.53;;;17.60;99.90;;;;;;5052872;28;20504;-76
2021/07/09 06:06:28;;;;;;;19.00;15.20;;;17.60;99.90;;;;;;5053163;28;20480;-77
2021/07/09 06:08:54;;;;;;;18.07;15.60;;;17.60;99.90;;;;;;5052585;28;20512;-76
2021/07/09 06:11:21;;;;;;;18.40;15.80;;;17.60;99.90;;;;;;5052643;28;20449;-76
2021/07/09 06:13:48;;;;;;;17.97;16.13;;;17.70;99.90;;;;;;5052555;28;20481;-76
2021/07/09 06:16:16;;;;;;;17.47;15.67;;;17.70;99.90;;;;;;5053619;28;20473;-76
2021/07/09 06:18:42;;;;;;;18.90;15.80;;;17.70;99.90;;;;;;5056548;28;20484;-76
2021/07/09 06:21:10;;;;;;;23.00;17.57;;;17.70;99.90;;;;;;5057430;28;20503;-76
2021/07/09 06:23:36;;;;;;;22.77;19.13;;;17.70;99.90;;;;;;5059519;28;20477;-76
2021/07/09 06:26:03;;;;;;;25.67;18.23;;;17.80;99.90;;;;;;5060008;28;20512;-77
2021/07/09 06:28:30;;;;;;;24.13;17.67;;;17.70;99.90;;;;;;5060403;28;20471;-77
2021/07/09 06:30:56;;;;;;;20.00;17.70;;;17.80;99.90;;;;;;5057709;28;20477;-77
2021/07/09 06:33:26;;;;;;;20.03;16.73;;;17.80;99.90;;;;;;5058239;28;20481;-77
2021/07/09 06:35:53;;;;;;;24.47;19.23;;;17.80;99.90;;;;;;5058117;28;20515;-77
2021/07/09 06:38:19;;;;;;;29.03;19.50;;;17.80;99.90;;;;;;5060445;28;20516;-77
2021/07/09 06:40:46;;;;;;;20.87;18.20;;;17.80;99.90;;;;;;5062161;28;20944;-76
2021/07/09 06:43:13;;;;;;;20.00;17.40;;;17.80;99.90;;;;;;5057093;28;20484;-76
2021/07/09 06:45:40;;;;;;;20.90;16.80;;;17.90;99.90;;;;;;5056904;28;20547;-76
2021/07/09 06:48:07;;;;;;;20.63;17.30;;;17.80;99.90;;;;;;5056494;28;20873;-76
2021/07/09 06:50:38;;;;;;;18.73;16.00;;;17.90;99.90;;;;;;5056329;28;20982;-76
2021/07/09 06:53:05;;;;;;;21.23;18.40;;;17.80;99.90;;;;;;5056757;28;20477;-76
2021/07/09 06:55:32;;;;;;;20.07;17.97;;;17.90;99.90;;;;;;5056434;28;20521;-76
2021/07/09 06:57:59;;;;;;;21.70;18.73;;;17.90;99.90;;;;;;5055985;28;20481;-76
2021/07/09 07:00:26;;;;;;;20.87;18.40;;;17.90;99.90;;;;;;5056065;28;20477;-76
2021/07/09 07:02:53;;;;;;;20.80;18.57;;;17.80;99.90;;;;;;5055670;28;21082;-76
2021/07/09 07:05:20;;;;;;;21.00;18.17;;;17.80;99.90;;;;;;5056178;28;20549;-76
2021/07/09 07:07:48;;;;;;;19.37;17.37;;;17.90;99.90;;;;;;5056150;28;20472;-76
2021/07/09 07:10:15;;;;;;;20.23;18.20;;;17.90;99.90;;;;;;5055981;28;20446;-76
2021/07/09 07:12:42;;;;;;;22.90;18.10;;;17.90;99.90;;;;;;5056164;28;20473;-77
2021/07/09 07:15:11;;;;;;;18.83;17.03;;;18.00;99.90;;;;;;5055898;28;20873;-76
2021/07/09 07:17:38;;;;;;;21.10;18.20;;;18.00;99.90;;;;;;5055746;28;20504;-77
2021/07/09 07:20:06;;;;;;;24.00;18.27;;;17.90;99.90;;;;;;5056031;28;20453;-76
2021/07/09 07:22:33;;;;;;;20.10;18.00;;;17.90;99.90;;;;;;5056047;28;20481;-77
2021/07/09 07:25:01;;;;;;;21.47;17.53;;;17.90;99.90;;;;;;5064099;28;21070;-76
2021/07/09 07:27:29;;;;;;;21.03;18.93;;;18.10;99.90;;;;;;5057078;28;20485;-77
2021/07/09 07:29:58;;;;;;;20.37;18.33;;;18.00;99.90;;;;;;5056029;28;20446;-77
2021/07/09 07:32:24;;;;;;;18.10;16.30;;;18.00;99.90;;;;;;5055948;28;20515;-78
2021/07/09 07:34:51;;;;;;;18.80;17.00;;;17.90;99.90;;;;;;5064436;28;20497;-76
2021/07/09 07:37:18;;;;;;;17.47;15.70;;;17.90;99.90;;;;;;5055642;28;20509;-76
2021/07/09 07:39:44;;;;;;;20.00;18.03;;;17.90;99.90;;;;;;5055702;28;20450;-76
2021/07/09 07:42:12;;;;;;;20.03;18.13;;;18.00;99.90;;;;;;5056438;28;20481;-77
2021/07/09 07:44:39;;;;;;;20.47;17.47;;;18.00;99.90;;;;;;5056788;28;20506;-76
2021/07/09 07:47:05;;;;;;;19.97;17.97;;;18.00;99.90;;;;;;5056047;28;20474;-77
2021/07/09 07:49:32;;;;;;;19.53;17.53;;;18.10;99.90;;;;;;5056214;28;20443;-76
2021/07/09 07:51:59;;;;;;;20.47;17.13;;;18.10;99.90;;;;;;5056054;28;20917;-77
2021/07/09 07:54:25;;;;;;;19.17;17.30;;;18.10;99.90;;;;;;5055477;28;20504;-77
2021/07/09 07:56:52;;;;;;;19.27;17.27;;;18.10;99.90;;;;;;5055188;28;20442;-77
2021/07/09 07:59:20;;;;;;;20.23;18.10;;;18.10;99.90;;;;;;5055837;28;20480;-77
2021/07/09 08:01:46;;;;;;;21.27;17.97;;;18.10;99.90;;;;;;5055784;28;20431;-76
2021/07/09 08:04:13;;;;;;;19.60;17.23;;;18.10;99.90;;;;;;5055977;28;21027;-77
2021/07/09 08:06:40;;;;;;;18.17;16.37;;;18.10;99.90;;;;;;5056203;28;20478;-76
2021/07/09 08:09:08;;;;;;;18.73;16.73;;;18.20;99.90;;;;;;5055837;28;20515;-76
2021/07/09 08:11:35;;;;;;;18.97;17.10;;;18.30;99.90;;;;;;5055993;28;20462;-77
2021/07/09 08:14:01;;;;;;;19.00;17.10;;;18.30;99.90;;;;;;5056150;28;20465;-76
2021/07/09 08:16:29;;;;;;;20.13;18.30;;;18.30;99.90;;;;;;5056017;28;20451;-77
2021/07/09 08:18:56;;;;;;;17.77;16.07;;;18.40;99.90;;;;;;5055834;28;20571;-77
2021/07/09 08:21:22;;;;;;;20.43;18.33;;;18.40;99.90;;;;;;5056025;28;20447;-77
2021/07/09 08:23:49;;;;;;;20.07;17.97;;;18.50;99.90;;;;;;5056766;28;20872;-76
2021/07/09 08:26:16;;;;;;;19.77;17.87;;;18.50;99.90;;;;;;5055674;28;20475;-76
2021/07/09 08:28:42;;;;;;;20.37;17.40;;;18.50;99.90;;;;;;5055662;28;20473;-76
2021/07/09 08:31:09;;;;;;;20.20;18.27;;;18.50;99.90;;;;;;5057360;28;20508;-78
2021/07/09 08:33:36;;;;;;;21.60;19.37;;;18.50;99.90;;;;;;5057286;28;20481;-78
2021/07/09 08:36:04;;;;;;;19.57;17.60;;;18.50;99.90;;;;;;5057230;28;20475;-78
2021/07/09 08:38:30;;;;;;;18.67;16.93;;;18.50;99.90;;;;;;5057151;28;21063;-77
2021/07/09 08:40:57;;;;;;;21.80;19.60;;;18.50;99.90;;;;;;5057121;28;20480;-77
2021/07/09 08:43:23;;;;;;;26.10;17.80;;;18.50;99.90;;;;;;5056601;28;20875;-77
2021/07/09 08:45:50;;;;;;;22.47;20.10;;;18.50;99.90;;;;;;5056754;28;20514;-77
2021/07/09 08:48:19;;;;;;;22.10;19.23;;;18.50;99.90;;;;;;5057081;28;20448;-77
2021/07/09 08:50:47;;;;;;;20.93;18.80;;;18.50;99.90;;;;;;5055921;28;20446;-77
2021/07/09 08:53:13;;;;;;;24.13;21.47;;;18.60;99.90;;;;;;5057007;28;20516;-78
2021/07/09 08:55:40;;;;;;;23.97;20.07;;;18.60;99.90;;;;;;5055981;28;20536;-77
2021/07/09 08:58:07;;;;;;;25.03;22.23;;;18.70;99.90;;;;;;5057268;28;20809;-77
2021/07/09 09:00:42;;;;;;;21.87;19.63;;;18.70;99.90;;;;;;5056626;28;20457;-77
2021/07/09 09:03:14;;;;;;;20.43;18.53;;;18.60;99.90;;;;;;5057393;28;21007;-78
2021/07/09 09:05:41;;;;;;;18.10;16.27;;;18.60;99.90;;;;;;5057412;28;20499;-78
2021/07/09 09:08:10;;;;;;;18.87;16.97;;;18.60;99.90;;;;;;5061629;28;20443;-77
2021/07/09 09:10:39;;;;;;;21.80;19.50;;;18.60;99.90;;;;;;5063827;28;20472;-77
2021/07/09 09:13:07;;;;;;;24.93;19.27;;;18.60;99.90;;;;;;5063550;28;20444;-76
2021/07/09 09:15:35;;;;;;;21.77;19.47;;;18.70;99.90;;;;;;5056992;28;20489;-79
2021/07/09 09:18:02;;;;;;;22.17;19.80;;;18.70;99.90;;;;;;5056213;28;20836;-78
2021/07/09 09:20:30;;;;;;;21.00;18.90;;;18.70;99.90;;;;;;5059254;28;20448;-78
2021/07/09 09:23:01;;;;;;;20.67;18.47;;;18.70;99.90;;;;;;5061233;28;20447;-77
2021/07/09 09:25:31;;;;;;;22.57;20.43;;;18.80;99.90;;;;;;5071896;28;20478;-77
2021/07/09 09:28:03;;;;;;;20.83;18.60;;;18.80;99.90;;;;;;5073642;28;20452;-77
2021/07/09 09:30:30;;;;;;;20.00;17.77;;;18.90;99.90;;;;;;5063827;28;20439;-78
2021/07/09 09:32:57;;;;;;;18.80;17.00;;;19.00;99.90;;;;;;5058114;28;20471;-78
2021/07/09 09:35:25;;;;;;;17.70;16.03;;;19.00;99.90;;;;;;5059223;28;20945;-78
2021/07/09 09:37:54;;;;;;;17.00;15.40;;;19.10;99.90;;;;;;5058497;28;21056;-78
2021/07/09 09:40:22;;;;;;;18.87;17.03;;;19.10;99.90;;;;;;5057412;28;20444;-78
2021/07/09 09:42:50;;;;;;;16.53;14.97;;;19.30;99.90;;;;;;5057212;28;21022;-78
2021/07/09 09:45:20;;;;;;;17.20;15.17;;;19.10;99.90;;;;;;5090306;22;21014;-80
2021/07/09 09:47:47;;;;;;;15.53;14.03;;;19.10;99.90;;;;;;5081660;28;21002;-80
2021/07/09 09:50:16;;;;;;;15.17;13.97;;;19.00;99.90;;;;;;5081430;28;20452;-79
2021/07/09 09:52:44;;;;;;;14.17;12.70;;;19.10;99.90;;;;;;5080899;28;20469;-79
2021/07/09 09:55:12;;;;;;;14.23;12.80;;;19.30;99.90;;;;;;5080775;28;20498;-79
2021/07/09 09:57:39;;;;;;;13.20;12.00;;;19.20;99.90;;;;;;5080392;28;20487;-79
2021/07/09 10:00:10;;;;;;;14.40;12.90;;;19.40;99.90;;;;;;5080040;28;21023;-79
2021/07/09 10:02:37;;;;;;;12.97;11.77;;;19.20;99.90;;;;;;5080549;28;20461;-80
2021/07/09 10:05:04;;;;;;;14.03;12.70;;;19.30;99.90;;;;;;5079555;28;20825;-80
2021/07/09 10:07:35;;;;;;;12.30;11.10;;;19.30;99.90;;;;;;5079355;28;20452;-80
2021/07/09 10:10:02;;;;;;;12.10;10.90;;;19.20;99.90;;;;;;5078554;28;20478;-81
2021/07/09 10:12:30;;;;;;;12.90;11.80;;;19.10;99.90;;;;;;5078724;28;20452;-79
2021/07/09 10:14:57;;;;;;;14.03;12.73;;;19.10;99.90;;;;;;5078088;28;20490;-79
2021/07/09 10:17:27;;;;;;;12.77;11.60;;;19.10;99.90;;;;;;5081685;28;20474;-79
2021/07/09 10:19:55;;;;;;;12.40;11.10;;;19.10;99.90;;;;;;5082658;28;20433;-79
2021/07/09 10:22:22;;;;;;;11.40;10.40;;;19.10;99.90;;;;;;5080756;28;20439;-80
2021/07/09 10:24:53;;;;;;;13.03;11.80;;;19.10;99.90;;;;;;5079178;28;20577;-79
2021/07/09 10:27:21;;;;;;;12.37;11.17;;;19.10;99.90;;;;;;5079644;28;20475;-81
2021/07/09 10:29:50;;;;;;;13.30;12.20;;;19.10;99.90;;;;;;5080774;28;20448;-80
2021/07/09 10:32:34;;;;;;;14.87;13.00;;;19.30;99.90;;;;;;5080274;28;20500;-80
2021/07/09 10:35:01;;;;;;;13.17;11.93;;;19.30;99.90;;;;;;5078970;28;20466;-79
2021/07/09 10:37:29;;;;;;;15.07;13.60;;;19.40;99.90;;;;;;5077979;28;20439;-80
2021/07/09 10:40:09;;;;;;;15.50;13.90;;;19.40;99.90;;;;;;5078318;28;20455;-79
2021/07/09 10:42:40;;;;;;;17.53;14.23;;;19.30;99.90;;;;;;5078032;28;20459;-82
2021/07/09 10:45:16;;;;;;;18.90;16.13;;;19.30;99.90;;;;;;5077152;28;20992;-79
2021/07/09 10:47:53;;;;;;;20.00;15.83;;;19.30;99.90;;;;;;5077056;28;20970;-79
2021/07/09 10:50:33;;;;;;;16.63;14.90;;;19.30;99.90;;;;;;5077236;28;20432;-79
2021/07/09 10:53:00;;;;;;;17.47;15.63;;;19.30;99.90;;;;;;5078319;28;20784;-80
2021/07/09 10:55:41;;;;;;;20.57;17.80;;;19.20;99.90;;;;;;5076917;28;20884;-80
2021/07/09 10:58:24;;;;;;;21.60;17.00;;;19.20;99.90;;;;;;5082003;28;20569;-76
2021/07/09 11:00:54;;;;;;;22.43;18.07;;;19.20;99.90;;;;;;5081794;28;20750;-78
2021/07/09 11:03:41;;;;;;;21.07;18.87;;;19.10;99.90;;;;;;5082958;28;20438;-77
2021/07/09 11:06:12;;;;;;;22.30;19.90;;;18.90;99.90;;;;;;5083131;28;20459;-77
2021/07/09 11:08:59;;;;;;;20.70;18.43;;;18.90;99.90;;;;;;5084751;28;20423;-80
2021/07/09 11:11:39;;;;;;;28.17;22.50;;;19.00;99.90;;;;;;5085302;28;20428;-78
2021/07/09 11:14:07;;;;;;;27.80;23.30;;;18.90;99.90;;;;;;5084140;28;20431;-78
2021/07/09 11:16:36;;;;;;;26.67;21.90;;;18.90;99.90;;;;;;5085480;28;20929;-77
2021/07/09 11:19:10;;;;;;;30.30;25.07;;;18.90;99.90;;;;;;5083636;28;20880;-79
2021/07/09 11:21:57;;;;;;;31.37;25.43;;;19.00;99.90;;;;;;5082354;28;20493;-79
2021/07/09 11:24:27;;;;;;;31.33;25.60;;;18.40;99.90;;;;;;5082390;28;20431;-80
2021/07/09 11:26:55;;;;;;;31.20;25.40;;;18.90;99.90;;;;;;5083363;28;20477;-78
2021/07/09 11:29:31;;;;;;;31.87;23.90;;;19.00;99.90;;;;;;5082797;28;20454;-78
2021/07/09 11:31:59;;;;;;;32.67;23.10;;;19.00;99.90;;;;;;5082920;28;20881;-80
2021/07/09 11:34:29;;;;;;;32.77;24.77;;;19.20;99.90;;;;;;5082796;28;20475;-78
2021/07/09 11:36:58;;;;;;;31.73;24.10;;;19.00;99.90;;;;;;5082457;28;20452;-78
2021/07/09 11:39:26;;;;;;;37.83;25.57;;;19.00;99.90;;;;;;5082359;28;20485;-78
2021/07/09 11:41:56;;;;;;;36.47;26.80;;;19.10;99.90;;;;;;5082139;28;20451;-78
2021/07/09 11:44:25;;;;;;;40.20;26.67;;;19.10;99.90;;;;;;5082640;28;20455;-78
2021/07/09 11:46:53;;;;;;;35.87;26.73;;;19.20;99.90;;;;;;5082817;28;20523;-78
2021/07/09 11:49:21;;;;;;;34.57;25.97;;;19.20;99.90;;;;;;5083275;28;20450;-78
2021/07/09 11:51:51;;;;;;;35.03;24.47;;;19.30;99.90;;;;;;5083484;28;20964;-79
2021/07/09 11:54:22;;;;;;;39.73;25.03;;;19.40;99.90;;;;;;5084035;28;20444;-79
2021/07/09 11:56:52;;;;;;;32.73;24.60;;;19.30;99.90;;;;;;5084067;28;20455;-81
2021/07/09 11:59:20;;;;;;;36.73;25.83;;;19.30;99.90;;;;;;5081705;28;20468;-78
2021/07/09 12:02:00;;;;;;;37.90;27.53;;;19.30;99.90;;;;;;5083663;28;20500;-78
2021/07/09 12:04:30;;;;;;;35.60;27.13;;;19.30;99.90;;;;;;5086893;28;20485;-79
2021/07/09 12:07:25;;;;;;;35.07;26.17;;;19.40;99.90;;;;;;5084106;28;20511;-79
2021/07/09 12:09:54;;;;;;;39.00;28.27;;;19.40;99.90;;;;;;5080945;28;20478;-79
2021/07/09 12:12:22;;;;;;;35.90;26.97;;;19.40;99.90;;;;;;5080079;28;20456;-78
2021/07/09 12:15:02;;;;;;;39.67;26.10;;;19.30;99.90;;;;;;5080401;28;20507;-79
2021/07/09 12:17:31;;;;;;;37.67;26.00;;;19.30;99.90;;;;;;5078691;28;20514;-79
2021/07/09 12:20:00;;;;;;;37.17;27.10;;;19.30;99.90;;;;;;5077795;28;20484;-80
2021/07/09 12:22:31;;;;;;;35.30;26.50;;;19.30;99.90;;;;;;5078804;28;20450;-79
2021/07/09 12:25:01;;;;;;;35.40;28.00;;;19.40;99.90;;;;;;5078763;28;20542;-80
2021/07/09 12:27:30;;;;;;;32.37;25.50;;;19.40;99.90;;;;;;5079495;28;20452;-80
2021/07/09 12:29:57;;;;;;;34.77;26.23;;;19.50;99.90;;;;;;5084626;28;20444;-78
2021/07/09 12:32:24;;;;;;;40.57;27.33;;;19.50;99.90;;;;;;5092712;28;20466;-78
2021/07/09 12:35:03;;;;;;;39.10;26.00;;;19.60;99.90;;;;;;5091174;28;20523;-78
2021/07/09 12:37:31;;;;;;;39.83;25.53;;;19.70;99.90;;;;;;5092599;28;20516;-78
2021/07/09 12:40:09;;;;;;;35.83;26.87;;;19.70;99.90;;;;;;5092195;28;20484;-77
2021/07/09 12:42:38;;;;;;;32.53;23.30;;;19.90;99.90;;;;;;5093661;28;20524;-78
2021/07/09 12:45:05;;;;;;;34.37;26.33;;;20.00;99.90;;;;;;5081670;28;20516;-80
2021/07/09 12:47:33;;;;;;;31.57;24.73;;;20.00;99.90;;;;;;5079805;28;20453;-79
2021/07/09 12:50:17;;;;;;;32.23;25.23;;;20.00;99.90;;;;;;5078633;28;20441;-80
2021/07/09 12:52:45;;;;;;;32.10;24.63;;;20.00;99.90;;;;;;5079021;28;20586;-81
2021/07/09 12:55:38;;;;;;;32.37;23.07;;;20.00;99.90;;;;;;5078390;28;20448;-80
2021/07/09 12:58:21;;;;;;;33.10;25.23;;;20.10;99.90;;;;;;5077898;28;20472;-80
2021/07/09 13:00:50;;;;;;;28.73;23.20;;;20.20;99.90;;;;;;5077843;28;20440;-79
2021/07/09 13:03:25;;;;;;;32.33;24.13;;;20.20;99.90;;;;;;5083211;28;20472;-78